Germantown Hills, Illinois
Current Conditions -  °F | °C
As of 2:15 PM on Thursday 30 Oct 2014 (Local Time) from KC75 Reporting Station
Overcast Overcast  
Wind Chill: 47°   Ceiling: 8000
Heat Index: 47°   Visibility: 10mi
Dew Point: 36°   Wind: 0mph
Humidity: 65%   Direction: NA
Pressure: 30.07"   Gusts: NA
Location:  40.7942°N, 89.4075°W
Report Text: KC75 301915Z AUTO 00000KT 10SM OVC080 09/02 A3007 RMK AO2 T00850022
Loading
Personal Weather Stations






























Interactive Weather Map
Tropical Storm Tracking
New forecast layout! Learn more

10-Day Weather Forecast

Advertisements
Track Severe Weather on mobile